Time;durP1;ratioP1;P1;durP2;ratioP2;P2;SDS_P1;SDS_P2;PMS_P1;PMS_P2;Temp;Humidity;BMP_temperature;BMP_pressure;BME280_temperature;BME280_humidity;BME280_pressure;Samples;Min_cycle;Max_cycle;Signal;HPM_P1;HPM_P2
2023/10/22 00:02:10;;;;;;;5.90;1.67;;;14.00;74.10;;;;;;6197307;23;20056;-94
2023/10/22 00:04:38;;;;;;;4.03;1.08;;;14.00;74.00;;;;;;6226331;23;20009;-93
2023/10/22 00:07:04;;;;;;;5.95;1.30;;;14.00;73.90;;;;;;6212078;23;20021;-92
2023/10/22 00:09:30;;;;;;;3.10;0.95;;;14.00;73.80;;;;;;6212763;23;20024;-96
2023/10/22 00:11:55;;;;;;;3.85;1.40;;;14.00;73.70;;;;;;6212495;23;20047;-95
2023/10/22 00:14:21;;;;;;;4.60;1.05;;;14.00;73.90;;;;;;6209356;23;20013;-95
2023/10/22 00:16:47;;;;;;;6.32;1.13;;;14.00;74.20;;;;;;6211460;23;20027;-94
2023/10/22 00:19:13;;;;;;;3.08;0.95;;;14.50;74.40;;;;;;6213305;23;20031;-89
2023/10/22 00:21:38;;;;;;;7.20;1.50;;;14.00;74.00;;;;;;6209523;23;20040;-93
2023/10/22 00:24:04;;;;;;;5.53;0.98;;;14.00;74.00;;;;;;6206718;23;20009;-92
2023/10/22 00:26:30;;;;;;;3.45;0.90;;;14.00;74.10;;;;;;6207260;23;20039;-92
2023/10/22 00:28:56;;;;;;;3.92;0.80;;;14.00;74.10;;;;;;6199726;23;20036;-93
2023/10/22 00:31:21;;;;;;;3.90;1.38;;;14.00;74.10;;;;;;6221097;23;20036;-91
2023/10/22 00:33:47;;;;;;;6.22;1.92;;;14.00;74.20;;;;;;6211760;23;20021;-90
2023/10/22 00:36:12;;;;;;;3.58;0.93;;;14.00;74.40;;;;;;6201521;23;20008;-94
2023/10/22 00:38:38;;;;;;;6.13;1.48;;;14.00;75.00;;;;;;6191908;23;20087;-92
2023/10/22 00:41:04;;;;;;;4.63;1.00;;;14.00;75.10;;;;;;6192016;23;20024;-95
2023/10/22 00:43:29;;;;;;;3.00;0.80;;;14.00;75.80;;;;;;6191485;23;20013;-91
2023/10/22 00:45:55;;;;;;;5.30;1.33;;;13.90;76.50;;;;;;6191496;23;20011;-95
2023/10/22 00:48:21;;;;;;;3.83;0.90;;;13.90;77.20;;;;;;6191565;23;20013;-93
2023/10/22 00:50:47;;;;;;;4.15;0.90;;;13.80;77.90;;;;;;6190738;23;20450;-91
2023/10/22 00:53:16;;;;;;;3.75;0.88;;;13.80;78.60;;;;;;6191343;23;20088;-93
2023/10/22 00:55:45;;;;;;;8.15;1.83;;;13.70;79.30;;;;;;6191824;23;20023;-93
2023/10/22 00:58:12;;;;;;;3.13;0.77;;;13.60;80.00;;;;;;6190661;23;20069;-91
2023/10/22 01:00:39;;;;;;;4.90;0.70;;;13.50;80.90;;;;;;6191213;23;20087;-94
2023/10/22 01:03:05;;;;;;;6.72;1.73;;;13.50;81.60;;;;;;6190780;23;20012;-92
2023/10/22 01:05:36;;;;;;;5.80;1.25;;;13.40;82.30;;;;;;6191099;23;20005;-91
2023/10/22 01:08:02;;;;;;;6.15;1.30;;;13.30;82.70;;;;;;6190185;23;20448;-93
2023/10/22 01:10:28;;;;;;;3.83;1.13;;;13.20;83.20;;;;;;6190138;23;20044;-93
2023/10/22 01:12:53;;;;;;;5.82;1.10;;;13.20;83.60;;;;;;6188170;23;20048;-92
2023/10/22 01:15:19;;;;;;;7.70;1.30;;;13.10;84.10;;;;;;6188262;23;20044;-93
2023/10/22 01:17:44;;;;;;;10.02;1.48;;;13.00;84.40;;;;;;6188275;23;20008;-92
2023/10/22 01:20:10;;;;;;;6.72;1.30;;;13.00;85.00;;;;;;6165014;23;20287;-93
2023/10/22 01:22:36;;;;;;;3.80;1.00;;;12.90;85.40;;;;;;6165525;23;20009;-93
2023/10/22 01:25:02;;;;;;;5.78;1.15;;;12.90;85.80;;;;;;6188884;23;20008;-93
2023/10/22 01:27:31;;;;;;;4.03;1.15;;;12.80;86.20;;;;;;6187370;23;20442;-93
2023/10/22 01:29:57;;;;;;;4.13;0.98;;;12.70;86.50;;;;;;6187570;23;20027;-92
2023/10/22 01:32:23;;;;;;;3.60;0.80;;;12.70;87.00;;;;;;6188072;23;20013;-91
2023/10/22 01:34:49;;;;;;;5.68;1.13;;;12.60;87.20;;;;;;6189282;23;20012;-93
2023/10/22 01:37:15;;;;;;;4.82;1.38;;;12.60;87.60;;;;;;6189767;23;20047;-93
2023/10/22 01:39:41;;;;;;;4.13;0.98;;;12.50;87.70;;;;;;6198136;23;20449;-93
2023/10/22 01:42:06;;;;;;;4.60;0.80;;;12.50;88.10;;;;;;6189448;23;20015;-93
2023/10/22 01:44:32;;;;;;;5.05;1.10;;;12.50;88.30;;;;;;6214617;23;20013;-92
2023/10/22 01:46:58;;;;;;;2.80;1.33;;;12.50;88.50;;;;;;6214981;23;20019;-92
2023/10/22 01:49:23;;;;;;;3.65;0.90;;;12.50;88.80;;;;;;6214463;23;20012;-92
2023/10/22 01:51:49;;;;;;;3.65;1.05;;;12.50;89.10;;;;;;6214478;23;20021;-93
2023/10/22 01:54:14;;;;;;;5.57;1.10;;;12.90;89.70;;;;;;6214388;23;20013;-92
2023/10/22 01:56:40;;;;;;;3.25;0.98;;;12.50;89.50;;;;;;6197037;23;20034;-91
2023/10/22 01:59:06;;;;;;;4.72;1.00;;;12.40;89.70;;;;;;6230769;23;20400;-93
2023/10/22 02:01:32;;;;;;;4.85;1.50;;;12.40;89.80;;;;;;6192213;23;20083;-93
2023/10/22 02:03:57;;;;;;;5.43;1.05;;;13.00;90.10;;;;;;6189886;23;20020;-94
2023/10/22 02:06:24;;;;;;;3.45;1.00;;;12.40;90.00;;;;;;6198807;23;20019;-93
2023/10/22 02:08:49;;;;;;;3.88;0.98;;;12.40;90.10;;;;;;6222917;23;20083;-92
2023/10/22 02:11:15;;;;;;;6.82;1.20;;;12.40;90.10;;;;;;6215405;23;20016;-91
2023/10/22 02:13:41;;;;;;;6.18;1.42;;;12.40;90.20;;;;;;6214803;23;20008;-93
2023/10/22 02:16:06;;;;;;;4.72;1.20;;;12.80;90.40;;;;;;6189977;23;20020;-91
2023/10/22 02:18:32;;;;;;;3.45;1.20;;;12.60;90.40;;;;;;6214225;23;20450;-92
2023/10/22 02:20:59;;;;;;;3.38;1.23;;;12.40;90.40;;;;;;6215120;23;20017;-89
2023/10/22 02:23:25;;;;;;;2.63;1.15;;;12.90;90.60;;;;;;6217603;23;20009;-92
2023/10/22 02:25:51;;;;;;;5.40;1.20;;;12.50;90.60;;;;;;6191430;23;20013;-91
2023/10/22 02:28:17;;;;;;;4.85;1.15;;;12.30;90.60;;;;;;6214528;23;20027;-93
2023/10/22 02:30:43;;;;;;;4.28;1.17;;;12.40;90.60;;;;;;6189589;23;20009;-91
2023/10/22 02:33:09;;;;;;;4.18;1.20;;;12.30;90.70;;;;;;6189780;23;20039;-91
2023/10/22 02:35:43;;;;;;;3.80;0.80;;;12.40;90.70;;;;;;6189511;23;20110;-89
2023/10/22 02:38:12;;;;;;;5.05;1.42;;;12.40;90.80;;;;;;6214214;23;20012;-91
2023/10/22 02:40:38;;;;;;;2.35;1.00;;;12.40;90.80;;;;;;6215223;23;20074;-91
2023/10/22 02:43:06;;;;;;;3.05;1.05;;;12.30;90.80;;;;;;6190269;23;20012;-90
2023/10/22 02:45:31;;;;;;;4.22;1.30;;;12.40;90.90;;;;;;6192307;23;20008;-92
2023/10/22 02:47:58;;;;;;;6.43;1.27;;;12.40;90.90;;;;;;6193150;23;20023;-92
2023/10/22 02:50:24;;;;;;;4.63;1.08;;;12.20;90.90;;;;;;6227430;23;20016;-92
2023/10/22 02:52:55;;;;;;;3.35;0.98;;;12.40;90.90;;;;;;6211375;23;20028;-91
2023/10/22 02:55:20;;;;;;;4.88;1.23;;;12.40;91.00;;;;;;6236216;23;20091;-92
2023/10/22 02:57:47;;;;;;;3.30;1.13;;;12.40;90.90;;;;;;6201828;23;20009;-93
2023/10/22 03:00:14;;;;;;;5.47;1.20;;;12.80;91.00;;;;;;6189379;23;20009;-92
2023/10/22 03:02:40;;;;;;;3.85;1.15;;;12.50;91.00;;;;;;6214616;23;20095;-90
2023/10/22 03:05:06;;;;;;;5.18;1.80;;;12.50;91.00;;;;;;6188997;23;20020;-92
2023/10/22 03:07:32;;;;;;;4.95;1.58;;;12.50;91.20;;;;;;6189069;23;20008;-91
2023/10/22 03:09:58;;;;;;;4.60;2.15;;;12.50;91.00;;;;;;6188994;23;20106;-91
2023/10/22 03:12:23;;;;;;;5.70;2.25;;;12.50;91.20;;;;;;6189835;23;20087;-90
2023/10/22 03:14:53;;;;;;;5.65;1.80;;;12.50;91.00;;;;;;6191020;23;20012;-91
2023/10/22 03:17:19;;;;;;;3.30;1.50;;;12.50;91.00;;;;;;6189976;23;20059;-93
2023/10/22 03:19:45;;;;;;;3.10;1.10;;;12.50;91.00;;;;;;6189145;23;20182;-94
2023/10/22 03:22:13;;;;;;;4.13;1.73;;;12.50;91.10;;;;;;6188670;23;20039;-92
2023/10/22 03:24:38;;;;;;;4.97;1.50;;;12.60;91.10;;;;;;6188926;23;20084;-90
2023/10/22 03:27:04;;;;;;;3.55;1.60;;;12.50;91.10;;;;;;6188956;23;20020;-93
2023/10/22 03:29:31;;;;;;;6.78;1.85;;;12.50;91.10;;;;;;6188452;23;20040;-93
2023/10/22 03:31:57;;;;;;;5.03;1.50;;;12.60;91.20;;;;;;6213734;23;20063;-91
2023/10/22 03:34:23;;;;;;;4.45;1.42;;;12.60;91.20;;;;;;6188537;23;20041;-93
2023/10/22 03:36:49;;;;;;;3.78;1.30;;;12.60;91.20;;;;;;6188325;23;20012;-92
2023/10/22 03:39:15;;;;;;;5.28;1.50;;;12.50;91.20;;;;;;6187993;23;20012;-91
2023/10/22 03:41:41;;;;;;;4.25;1.88;;;12.60;91.20;;;;;;6188719;23;20017;-92
2023/10/22 03:44:06;;;;;;;3.97;1.60;;;12.80;91.40;;;;;;6188495;23;20015;-91
2023/10/22 03:46:32;;;;;;;3.60;1.50;;;12.60;91.30;;;;;;6214361;23;20052;-92
2023/10/22 03:48:58;;;;;;;3.38;1.75;;;12.60;91.30;;;;;;6188912;23;20091;-89
2023/10/22 03:51:24;;;;;;;2.72;1.67;;;12.60;91.40;;;;;;6189827;23;20013;-90
2023/10/22 03:53:53;;;;;;;4.93;1.70;;;12.60;91.40;;;;;;6213868;23;20153;-91
2023/10/22 03:56:22;;;;;;;4.07;1.70;;;12.60;91.40;;;;;;6213853;23;20013;-91
2023/10/22 03:58:48;;;;;;;1.80;1.42;;;12.60;91.50;;;;;;6213777;23;20048;-89
2023/10/22 04:01:14;;;;;;;5.15;1.73;;;12.90;91.60;;;;;;6190703;23;20078;-92
2023/10/22 04:03:40;;;;;;;3.90;2.13;;;12.60;91.50;;;;;;6189043;23;20016;-92
2023/10/22 04:06:05;;;;;;;4.13;1.70;;;12.60;91.50;;;;;;6189215;23;20008;-93
2023/10/22 04:08:31;;;;;;;3.45;2.00;;;12.60;91.60;;;;;;6200613;23;20008;-89
2023/10/22 04:10:56;;;;;;;4.05;1.80;;;12.60;91.60;;;;;;6229251;23;20023;-90
2023/10/22 04:13:22;;;;;;;3.70;1.70;;;12.60;91.60;;;;;;6226996;23;20016;-92
2023/10/22 04:15:49;;;;;;;3.08;2.00;;;13.10;91.80;;;;;;6218644;23;20098;-91
2023/10/22 04:18:19;;;;;;;2.88;1.80;;;12.60;91.60;;;;;;6220929;23;20023;-91
2023/10/22 04:20:45;;;;;;;2.53;1.80;;;12.70;91.70;;;;;;6188215;23;20013;-92
2023/10/22 04:23:11;;;;;;;3.42;1.70;;;12.70;91.70;;;;;;6213925;23;20008;-91
2023/10/22 04:25:40;;;;;;;2.47;1.63;;;12.70;91.70;;;;;;6194687;23;20070;-93
2023/10/22 04:28:07;;;;;;;2.40;1.63;;;12.70;91.70;;;;;;6217935;23;20005;-93
2023/10/22 04:30:39;;;;;;;2.28;1.83;;;12.70;91.70;;;;;;6189238;23;20016;-94
2023/10/22 04:33:06;;;;;;;2.50;1.63;;;12.70;91.70;;;;;;6213959;23;20064;-94
2023/10/22 04:35:32;;;;;;;3.03;2.05;;;12.70;91.70;;;;;;6188348;23;20071;-93
2023/10/22 04:38:02;;;;;;;2.53;1.48;;;12.70;91.70;;;;;;6189042;23;20016;-93
2023/10/22 04:40:32;;;;;;;2.25;1.70;;;12.80;91.70;;;;;;6213524;23;20100;-93
2023/10/22 04:42:57;;;;;;;2.83;1.63;;;12.70;91.70;;;;;;6188783;23;20150;-93
2023/10/22 04:45:23;;;;;;;3.03;1.63;;;12.80;91.70;;;;;;6188694;23;20015;-94
2023/10/22 04:47:49;;;;;;;2.40;1.67;;;13.00;91.80;;;;;;6188778;23;20400;-93
2023/10/22 04:50:14;;;;;;;4.00;2.03;;;12.80;91.70;;;;;;6188134;23;20090;-94
2023/10/22 04:52:40;;;;;;;2.67;1.92;;;12.80;91.70;;;;;;6213791;23;20027;-93
2023/10/22 04:55:06;;;;;;;3.13;2.00;;;12.80;91.70;;;;;;6188466;23;20016;-93
2023/10/22 04:57:32;;;;;;;2.35;1.83;;;12.80;91.70;;;;;;6188110;23;20009;-92
2023/10/22 04:59:57;;;;;;;1.88;1.65;;;12.80;91.70;;;;;;6213881;23;20088;-94
2023/10/22 05:02:23;;;;;;;2.53;1.98;;;12.80;91.70;;;;;;6213606;23;20009;-92
2023/10/22 05:04:51;;;;;;;2.70;2.15;;;12.80;91.70;;;;;;6188901;23;20008;-94
2023/10/22 05:07:16;;;;;;;2.88;1.67;;;12.80;91.70;;;;;;6191231;23;20058;-92
2023/10/22 05:09:42;;;;;;;2.78;2.13;;;12.90;91.80;;;;;;6191530;23;20099;-94
2023/10/22 05:12:08;;;;;;;2.10;1.58;;;12.90;91.80;;;;;;6215418;23;20024;-93
2023/10/22 05:14:34;;;;;;;2.22;1.48;;;12.90;91.80;;;;;;6190401;23;20009;-91
2023/10/22 05:16:59;;;;;;;4.28;1.50;;;12.90;91.70;;;;;;6190843;23;20083;-90
2023/10/22 05:19:26;;;;;;;1.58;1.20;;;12.90;91.70;;;;;;6215452;23;20005;-92
2023/10/22 05:21:51;;;;;;;2.10;1.30;;;12.90;91.70;;;;;;6194052;23;20031;-92
2023/10/22 05:24:17;;;;;;;3.50;0.82;;;12.90;91.80;;;;;;6218325;23;20016;-91
2023/10/22 05:26:42;;;;;;;1.25;0.80;;;13.00;91.80;;;;;;6204057;23;20015;-91
2023/10/22 05:29:08;;;;;;;1.25;0.60;;;13.00;91.80;;;;;;6210031;23;20088;-90
2023/10/22 05:31:34;;;;;;;2.22;0.60;;;13.00;91.90;;;;;;6209678;23;20012;-91
2023/10/22 05:33:59;;;;;;;2.97;1.00;;;13.10;91.70;;;;;;6223938;23;20017;-90
2023/10/22 05:36:26;;;;;;;2.47;1.33;;;13.00;91.70;;;;;;6189801;23;20044;-91
2023/10/22 05:38:51;;;;;;;4.80;0.90;;;13.00;91.60;;;;;;6189149;23;20505;-91
2023/10/22 05:41:21;;;;;;;5.13;1.00;;;13.00;91.60;;;;;;6189329;23;20075;-90
2023/10/22 05:43:51;;;;;;;4.55;1.08;;;13.00;91.50;;;;;;6189383;23;20600;-88
2023/10/22 05:46:16;;;;;;;4.15;1.00;;;13.00;91.50;;;;;;6189519;23;20095;-90
2023/10/22 05:48:42;;;;;;;5.65;1.10;;;13.10;91.50;;;;;;6189579;23;20032;-89
2023/10/22 05:51:08;;;;;;;5.85;1.20;;;13.40;91.50;;;;;;6164766;23;20096;-89
2023/10/22 05:53:33;;;;;;;4.82;1.40;;;13.50;91.50;;;;;;6188211;23;20096;-89
2023/10/22 05:55:59;;;;;;;3.53;0.80;;;13.00;91.30;;;;;;6164235;23;20017;-90
2023/10/22 05:58:25;;;;;;;3.22;0.70;;;13.00;91.30;;;;;;6164485;23;20091;-89
2023/10/22 06:00:51;;;;;;;2.35;1.20;;;13.00;91.30;;;;;;6188569;23;20601;-90
2023/10/22 06:03:17;;;;;;;2.13;0.82;;;13.00;91.30;;;;;;6189508;23;20066;-91
2023/10/22 06:05:44;;;;;;;4.18;1.00;;;13.00;91.30;;;;;;6188609;23;20087;-92
2023/10/22 06:08:09;;;;;;;3.25;1.30;;;13.00;91.20;;;;;;6189327;23;20016;-91
2023/10/22 06:10:42;;;;;;;3.50;1.20;;;13.00;91.20;;;;;;6189378;23;20013;-91
2023/10/22 06:13:09;;;;;;;5.38;1.15;;;13.00;91.20;;;;;;6189266;23;20020;-90
2023/10/22 06:15:40;;;;;;;2.35;0.95;;;12.90;91.10;;;;;;6188340;23;20012;-91
2023/10/22 06:18:06;;;;;;;3.45;0.85;;;13.00;91.10;;;;;;6189192;23;20016;-90
2023/10/22 06:20:36;;;;;;;3.65;0.82;;;13.00;91.00;;;;;;6188231;23;20312;-91
2023/10/22 06:23:04;;;;;;;1.48;0.98;;;12.90;91.00;;;;;;6189343;23;20015;-92
2023/10/22 06:25:31;;;;;;;3.00;1.30;;;12.90;90.90;;;;;;6190170;23;20008;-90
2023/10/22 06:27:58;;;;;;;4.70;1.30;;;13.40;90.90;;;;;;6194770;23;20699;-92
2023/10/22 06:30:25;;;;;;;3.20;1.27;;;12.90;90.80;;;;;;6192475;23;20509;-92
2023/10/22 06:32:55;;;;;;;3.70;1.52;;;12.90;90.70;;;;;;6190099;23;20062;-91
2023/10/22 06:35:21;;;;;;;6.88;1.67;;;12.90;90.70;;;;;;6188927;23;20016;-91
2023/10/22 06:37:53;;;;;;;2.55;1.58;;;12.80;90.60;;;;;;6188801;23;20036;-93
2023/10/22 06:40:20;;;;;;;5.18;2.00;;;12.90;90.60;;;;;;6206605;23;20504;-92
2023/10/22 06:42:47;;;;;;;6.28;1.58;;;12.90;90.60;;;;;;6189331;23;20165;-90
2023/10/22 06:45:12;;;;;;;5.03;2.28;;;12.90;90.60;;;;;;6214044;23;20005;-92
2023/10/22 06:47:38;;;;;;;5.07;2.00;;;12.80;90.50;;;;;;6189810;23;20078;-92
2023/10/22 06:50:05;;;;;;;6.35;2.65;;;12.80;90.50;;;;;;6213774;23;20017;-92
2023/10/22 06:52:31;;;;;;;5.82;2.30;;;12.80;90.50;;;;;;6214602;23;20017;-92
2023/10/22 06:54:57;;;;;;;5.18;2.33;;;12.80;90.50;;;;;;6188824;23;20264;-92
2023/10/22 06:57:22;;;;;;;8.45;2.58;;;12.80;90.50;;;;;;6189308;23;20121;-92
2023/10/22 06:59:48;;;;;;;7.50;3.80;;;12.80;90.50;;;;;;6189290;23;20009;-92
2023/10/22 07:02:15;;;;;;;5.32;2.70;;;12.80;90.50;;;;;;6215310;23;20023;-91
2023/10/22 07:04:42;;;;;;;6.88;2.67;;;12.80;90.50;;;;;;6189984;23;20013;-91
2023/10/22 07:07:08;;;;;;;5.03;2.40;;;13.00;90.50;;;;;;6216896;23;20017;-91
2023/10/22 07:09:33;;;;;;;8.32;3.15;;;12.80;90.50;;;;;;6189994;23;20016;-93
2023/10/22 07:11:59;;;;;;;5.53;3.33;;;12.90;90.50;;;;;;6190035;23;20068;-93
2023/10/22 07:14:25;;;;;;;8.38;3.67;;;12.80;90.50;;;;;;6188841;23;20009;-92
2023/10/22 07:16:51;;;;;;;6.85;3.28;;;12.80;90.50;;;;;;6189461;23;20468;-92
2023/10/22 07:19:17;;;;;;;5.05;2.28;;;12.80;90.50;;;;;;6188893;23;20099;-92
2023/10/22 07:21:42;;;;;;;9.52;3.00;;;12.80;90.40;;;;;;6188880;23;20032;-91
2023/10/22 07:24:08;;;;;;;6.43;2.72;;;12.80;90.40;;;;;;6188513;23;20130;-91
2023/10/22 07:26:34;;;;;;;4.80;2.53;;;12.80;90.40;;;;;;6188908;23;20082;-93
2023/10/22 07:28:59;;;;;;;8.07;2.33;;;13.20;90.50;;;;;;6188984;23;20116;-93
2023/10/22 07:31:25;;;;;;;4.78;2.20;;;12.80;90.40;;;;;;6189674;23;20012;-94
2023/10/22 07:33:51;;;;;;;4.63;2.10;;;12.80;90.40;;;;;;6197076;23;20016;-91
2023/10/22 07:36:16;;;;;;;4.75;2.20;;;12.80;90.30;;;;;;6196554;23;20017;-94
2023/10/22 07:38:42;;;;;;;4.78;2.47;;;12.80;90.30;;;;;;6217233;23;20012;-94
2023/10/22 07:41:15;;;;;;;4.00;2.10;;;12.80;90.20;;;;;;6191599;23;20103;-91
2023/10/22 07:43:40;;;;;;;5.03;2.25;;;12.80;90.20;;;;;;6201469;23;20020;-92
2023/10/22 07:46:07;;;;;;;4.32;2.10;;;12.80;90.20;;;;;;6200898;23;20064;-92
2023/10/22 07:48:32;;;;;;;4.55;1.63;;;12.80;90.20;;;;;;6166353;23;20066;-94
2023/10/22 07:51:31;;;;;;;4.50;1.85;;;12.80;90.20;;;;;;6191467;23;20013;-93
2023/10/22 07:53:56;;;;;;;5.63;1.90;;;12.80;90.10;;;;;;6125481;23;20016;-95
2023/10/22 07:56:22;;;;;;;4.07;1.70;;;12.80;90.20;;;;;;6192162;23;20063;-91
2023/10/22 07:58:48;;;;;;;3.05;1.90;;;12.80;90.20;;;;;;6167930;23;20016;-94
2023/10/22 08:01:14;;;;;;;2.83;1.00;;;12.80;90.20;;;;;;6197055;23;20016;-94
2023/10/22 08:03:39;;;;;;;4.60;1.55;;;12.80;90.20;;;;;;6185528;23;20009;-90
2023/10/22 08:06:05;;;;;;;3.33;1.20;;;12.80;90.30;;;;;;6211029;23;20288;-90
2023/10/22 08:08:31;;;;;;;5.45;1.23;;;12.80;90.10;;;;;;6210832;23;20008;-90
2023/10/22 08:10:58;;;;;;;2.70;1.10;;;12.80;90.10;;;;;;6201652;23;20385;-90
2023/10/22 08:13:24;;;;;;;10.25;1.95;;;12.80;90.10;;;;;;6195932;23;20055;-90
2023/10/22 08:15:49;;;;;;;6.15;1.65;;;12.90;90.10;;;;;;6195330;23;20016;-90
2023/10/22 08:18:15;;;;;;;6.40;1.55;;;12.90;90.10;;;;;;6168499;23;20016;-88
2023/10/22 08:20:41;;;;;;;9.88;2.58;;;12.90;90.10;;;;;;6193848;23;20017;-88
2023/10/22 08:23:07;;;;;;;4.85;1.58;;;12.90;90.10;;;;;;6188973;23;20005;-89
2023/10/22 08:25:33;;;;;;;9.05;1.67;;;13.00;90.20;;;;;;6188922;23;20023;-89
2023/10/22 08:27:59;;;;;;;4.32;1.27;;;13.00;90.20;;;;;;6215112;23;20013;-90
2023/10/22 08:30:24;;;;;;;5.25;1.60;;;13.00;90.20;;;;;;6193521;23;20030;-90
2023/10/22 08:32:51;;;;;;;3.92;1.10;;;13.00;90.20;;;;;;6165196;23;20017;-89
2023/10/22 08:35:16;;;;;;;6.30;2.28;;;13.10;90.20;;;;;;6188906;23;20457;-90
2023/10/22 08:37:42;;;;;;;2.63;1.20;;;13.10;90.20;;;;;;6188849;23;20036;-89
2023/10/22 08:40:09;;;;;;;6.57;2.00;;;13.20;90.20;;;;;;6201965;23;20021;-88
2023/10/22 08:42:35;;;;;;;7.35;1.85;;;13.20;90.10;;;;;;6188060;23;20032;-89
2023/10/22 08:45:05;;;;;;;6.13;1.60;;;13.50;90.30;;;;;;6215004;23;20442;-88
2023/10/22 08:47:33;;;;;;;5.28;1.55;;;13.30;90.40;;;;;;6215659;23;20016;-90
2023/10/22 08:50:01;;;;;;;3.75;1.10;;;13.40;90.40;;;;;;6189613;23;20043;-90
2023/10/22 08:52:27;;;;;;;2.60;1.73;;;13.50;90.20;;;;;;6190110;23;20048;-90
2023/10/22 08:54:53;;;;;;;5.07;1.48;;;13.60;90.00;;;;;;6189061;23;20012;-90
2023/10/22 08:57:21;;;;;;;5.03;1.40;;;13.70;90.10;;;;;;6214972;23;20054;-90
2023/10/22 08:59:48;;;;;;;5.40;1.23;;;13.80;89.90;;;;;;6214928;23;20024;-90
2023/10/22 09:02:21;;;;;;;5.53;1.50;;;13.90;90.00;;;;;;6189641;23;20079;-89
2023/10/22 09:04:47;;;;;;;5.50;1.40;;;14.10;89.90;;;;;;6190117;23;20016;-91
2023/10/22 09:07:12;;;;;;;3.05;1.30;;;14.20;89.60;;;;;;6214806;23;20240;-90
2023/10/22 09:09:39;;;;;;;4.22;1.33;;;14.60;89.20;;;;;;6214753;23;20052;-89
2023/10/22 09:12:10;;;;;;;3.97;1.48;;;14.40;88.40;;;;;;6214970;23;20408;-90
2023/10/22 09:14:36;;;;;;;3.38;1.15;;;14.50;88.00;;;;;;6214811;23;20107;-89
2023/10/22 09:17:20;;;;;;;5.30;1.40;;;14.60;87.70;;;;;;6189944;23;20016;-90
2023/10/22 09:19:49;;;;;;;9.25;1.98;;;14.80;86.50;;;;;;6214787;23;20087;-90
2023/10/22 09:22:25;;;;;;;7.65;2.05;;;14.90;86.40;;;;;;6214429;23;20008;-89
2023/10/22 09:24:54;;;;;;;5.55;1.30;;;15.00;85.70;;;;;;6214357;23;20023;-90
2023/10/22 09:27:25;;;;;;;2.88;1.02;;;15.20;85.50;;;;;;6214210;23;20014;-91
2023/10/22 09:29:51;;;;;;;4.00;1.40;;;15.20;85.20;;;;;;6214599;23;20016;-89
2023/10/22 09:32:17;;;;;;;4.68;1.23;;;15.30;84.60;;;;;;6189808;23;20028;-90
2023/10/22 09:34:43;;;;;;;3.33;1.70;;;15.40;84.30;;;;;;6189303;23;20009;-93
2023/10/22 09:37:08;;;;;;;3.33;1.00;;;15.40;83.80;;;;;;6189299;23;20095;-88
2023/10/22 09:39:44;;;;;;;4.05;1.10;;;15.50;83.50;;;;;;6212986;23;20021;-88
2023/10/22 09:42:11;;;;;;;3.25;1.35;;;15.60;83.10;;;;;;6188525;23;20044;-89
2023/10/22 09:44:39;;;;;;;3.22;1.13;;;15.70;83.00;;;;;;6188855;23;20012;-89
2023/10/22 09:47:08;;;;;;;3.90;1.33;;;15.80;82.70;;;;;;6188749;23;20557;-88
2023/10/22 09:49:35;;;;;;;3.90;1.50;;;15.80;82.30;;;;;;6188876;23;20062;-89
2023/10/22 09:52:03;;;;;;;4.65;1.23;;;15.90;81.10;;;;;;6188608;23;20044;-87
2023/10/22 09:54:37;;;;;;;4.60;1.00;;;15.90;80.40;;;;;;6187766;23;20005;-89
2023/10/22 09:57:28;;;;;;;5.10;1.30;;;16.00;79.80;;;;;;6188684;23;20035;-92
2023/10/22 10:00:01;;;;;;;3.10;0.77;;;16.00;78.00;;;;;;6172702;23;20009;-90
2023/10/22 10:02:28;;;;;;;2.47;0.77;;;16.00;77.50;;;;;;6214311;23;20446;-90
2023/10/22 10:04:54;;;;;;;3.45;0.73;;;16.00;77.40;;;;;;6214215;23;20005;-92
2023/10/22 10:07:23;;;;;;;3.00;0.70;;;16.00;77.10;;;;;;6188969;23;20507;-90
2023/10/22 10:09:49;;;;;;;2.50;1.08;;;16.10;76.20;;;;;;6188621;23;20040;-88
2023/10/22 10:12:16;;;;;;;3.08;0.68;;;16.10;75.40;;;;;;6189243;23;20462;-89
2023/10/22 10:14:46;;;;;;;3.30;0.40;;;16.10;74.90;;;;;;6214748;23;20020;-90
2023/10/22 10:17:13;;;;;;;2.88;0.70;;;16.10;74.10;;;;;;6214493;23;20131;-91
2023/10/22 10:19:39;;;;;;;2.25;0.50;;;16.00;73.70;;;;;;6190016;23;20063;-88
2023/10/22 10:22:05;;;;;;;2.65;1.10;;;16.00;72.90;;;;;;6214433;23;20020;-90
2023/10/22 10:24:31;;;;;;;3.75;0.88;;;15.90;72.60;;;;;;6217782;23;20015;-89
2023/10/22 10:26:57;;;;;;;2.53;0.70;;;16.00;73.00;;;;;;6191386;23;20013;-88
2023/10/22 10:29:24;;;;;;;1.95;0.70;;;16.00;73.60;;;;;;6192287;23;20027;-90
2023/10/22 10:31:52;;;;;;;4.88;0.70;;;15.90;73.70;;;;;;6220772;23;20019;-90
2023/10/22 10:34:22;;;;;;;5.00;2.15;;;15.90;74.10;;;;;;6219280;23;20457;-90
2023/10/22 10:36:52;;;;;;;3.13;1.10;;;15.90;74.70;;;;;;6224018;23;20047;-90
2023/10/22 10:39:36;;;;;;;4.05;1.42;;;15.90;75.20;;;;;;6227534;23;20028;-88
2023/10/22 10:42:02;;;;;;;4.85;1.50;;;15.90;75.40;;;;;;6238144;23;20012;-88
2023/10/22 10:44:31;;;;;;;4.03;1.20;;;15.90;75.30;;;;;;6239782;23;20048;-90
2023/10/22 10:47:22;;;;;;;5.03;1.42;;;15.90;75.30;;;;;;6210874;23;20076;-89
2023/10/22 10:50:11;;;;;;;3.88;1.70;;;15.90;75.20;;;;;;6199550;23;20016;-90
2023/10/22 10:52:45;;;;;;;3.95;1.38;;;15.90;75.20;;;;;;6191909;23;20071;-90
2023/10/22 10:55:30;;;;;;;3.88;1.27;;;15.80;75.20;;;;;;6214954;23;20418;-89
2023/10/22 10:57:56;;;;;;;2.42;1.00;;;15.80;75.20;;;;;;6213437;23;20019;-89
2023/10/22 11:00:28;;;;;;;3.25;1.20;;;15.80;75.40;;;;;;6213989;23;20017;-90
2023/10/22 11:02:58;;;;;;;4.15;1.40;;;15.70;75.60;;;;;;6190038;23;20004;-91
2023/10/22 11:05:42;;;;;;;3.78;1.48;;;15.70;76.00;;;;;;6213791;23;20047;-88
2023/10/22 11:08:18;;;;;;;5.03;1.70;;;15.70;76.00;;;;;;6212620;23;20023;-87
2023/10/22 11:10:45;;;;;;;5.28;1.70;;;15.70;76.30;;;;;;6213411;23;20078;-91
2023/10/22 11:13:11;;;;;;;5.63;2.13;;;15.70;76.50;;;;;;6212974;23;20507;-89
2023/10/22 11:15:37;;;;;;;3.28;1.73;;;15.70;76.50;;;;;;6213842;23;20020;-88
2023/10/22 11:18:05;;;;;;;8.00;1.70;;;15.70;76.20;;;;;;6213788;23;20016;-89
2023/10/22 11:20:32;;;;;;;3.47;1.45;;;15.70;75.90;;;;;;6212913;23;20009;-88
2023/10/22 11:22:58;;;;;;;5.93;1.52;;;15.70;76.00;;;;;;6213066;23;20062;-90
2023/10/22 11:25:25;;;;;;;4.72;1.40;;;15.70;75.90;;;;;;6188227;23;20009;-89
2023/10/22 11:27:51;;;;;;;2.72;1.02;;;15.70;75.80;;;;;;6213182;23;20005;-89
2023/10/22 11:30:37;;;;;;;2.75;1.05;;;15.60;75.60;;;;;;6212917;23;20051;-88
2023/10/22 11:33:29;;;;;;;3.42;1.10;;;15.60;75.40;;;;;;6214156;23;20013;-89
2023/10/22 11:35:57;;;;;;;1.70;0.70;;;15.60;74.00;;;;;;6188384;23;20460;-88
2023/10/22 11:38:23;;;;;;;3.05;0.73;;;15.60;74.10;;;;;;6212585;23;20011;-87
2023/10/22 11:40:54;;;;;;;4.97;0.95;;;15.60;73.70;;;;;;6187330;23;20383;-88
2023/10/22 11:43:19;;;;;;;2.22;0.75;;;15.50;73.30;;;;;;6212393;23;20040;-87
2023/10/22 11:45:53;;;;;;;5.63;1.02;;;15.50;73.50;;;;;;6212627;23;20012;-88
2023/10/22 11:48:21;;;;;;;3.15;0.52;;;15.50;73.50;;;;;;6187452;23;20410;-87
2023/10/22 11:50:51;;;;;;;3.33;0.90;;;15.50;73.60;;;;;;6187607;23;20017;-87
2023/10/22 11:53:17;;;;;;;5.60;0.90;;;15.50;73.40;;;;;;6212289;23;20576;-87
2023/10/22 11:55:45;;;;;;;1.80;0.77;;;15.50;73.00;;;;;;6212366;23;20012;-88
2023/10/22 11:58:27;;;;;;;1.40;0.70;;;15.50;73.20;;;;;;6212079;23;20040;-87
2023/10/22 12:00:53;;;;;;;4.40;1.20;;;15.50;74.00;;;;;;6187239;23;20029;-87
2023/10/22 12:03:19;;;;;;;4.28;1.67;;;15.40;74.30;;;;;;6211875;23;20113;-87
2023/10/22 12:05:45;;;;;;;3.97;1.02;;;15.50;74.60;;;;;;6212068;23;20146;-88
2023/10/22 12:08:11;;;;;;;1.60;0.80;;;15.40;75.30;;;;;;6211662;23;20015;-88
2023/10/22 12:10:37;;;;;;;1.95;0.85;;;15.40;75.20;;;;;;6212360;23;20027;-87
2023/10/22 12:13:05;;;;;;;3.05;1.00;;;15.40;75.60;;;;;;6187982;23;20017;-88
2023/10/22 12:15:31;;;;;;;3.88;1.00;;;15.40;75.10;;;;;;6188091;23;20455;-88
2023/10/22 12:17:56;;;;;;;2.40;1.08;;;15.40;75.40;;;;;;6187632;23;20016;-87
2023/10/22 12:20:22;;;;;;;4.13;1.13;;;15.40;75.50;;;;;;6187312;23;20017;-88
2023/10/22 12:22:48;;;;;;;3.65;1.10;;;15.40;75.60;;;;;;6213332;23;20016;-89
2023/10/22 12:25:14;;;;;;;3.13;1.00;;;15.40;75.40;;;;;;6220156;23;20005;-90
2023/10/22 12:27:39;;;;;;;3.53;0.88;;;15.40;75.50;;;;;;6221600;23;20008;-89
2023/10/22 12:30:06;;;;;;;5.30;0.98;;;15.40;75.50;;;;;;6225207;23;20012;-90
2023/10/22 12:32:32;;;;;;;3.08;0.80;;;15.40;75.30;;;;;;6197771;23;20020;-90
2023/10/22 12:34:59;;;;;;;3.63;0.75;;;15.40;75.40;;;;;;6222685;23;20033;-90
2023/10/22 12:37:25;;;;;;;4.25;1.10;;;15.40;75.50;;;;;;6221746;23;20013;-90
2023/10/22 12:39:51;;;;;;;3.08;0.85;;;15.40;75.70;;;;;;6222555;23;20036;-91
2023/10/22 12:42:16;;;;;;;1.75;0.80;;;15.40;75.60;;;;;;6215885;23;20016;-90
2023/10/22 12:44:46;;;;;;;4.03;1.08;;;15.50;75.50;;;;;;6213753;23;20031;-91
2023/10/22 12:47:14;;;;;;;2.78;1.10;;;15.40;75.10;;;;;;6213248;23;20008;-89
2023/10/22 12:49:40;;;;;;;3.60;1.02;;;15.40;75.10;;;;;;6212251;23;20377;-89